sensor_id;sensor_type;location;lat;lon;timestamp;temperature;humidity
68719;DHT22;55696;52.138;5.444;2023-08-07T00:02:02;16.80;73.80
68719;DHT22;55696;52.138;5.444;2023-08-07T00:04:30;17.00;73.80
68719;DHT22;55696;52.138;5.444;2023-08-07T00:06:57;16.80;73.70
68719;DHT22;55696;52.138;5.444;2023-08-07T00:09:24;17.60;74.20
68719;DHT22;55696;52.138;5.444;2023-08-07T00:11:51;16.90;73.90
68719;DHT22;55696;52.138;5.444;2023-08-07T00:14:18;17.40;74.10
68719;DHT22;55696;52.138;5.444;2023-08-07T00:16:44;16.80;73.70
68719;DHT22;55696;52.138;5.444;2023-08-07T00:19:11;16.70;73.50
68719;DHT22;55696;52.138;5.444;2023-08-07T00:21:38;16.90;73.40
68719;DHT22;55696;52.138;5.444;2023-08-07T00:24:05;16.90;73.20
68719;DHT22;55696;52.138;5.444;2023-08-07T00:26:32;16.80;73.10
68719;DHT22;55696;52.138;5.444;2023-08-07T00:28:59;17.20;73.20
68719;DHT22;55696;52.138;5.444;2023-08-07T00:31:26;16.80;73.00
68719;DHT22;55696;52.138;5.444;2023-08-07T00:33:58;16.90;73.20
68719;DHT22;55696;52.138;5.444;2023-08-07T00:36:26;16.90;73.50
68719;DHT22;55696;52.138;5.444;2023-08-07T00:38:55;17.00;73.10
68719;DHT22;55696;52.138;5.444;2023-08-07T00:41:22;16.80;72.80
68719;DHT22;55696;52.138;5.444;2023-08-07T00:43:49;16.90;72.90
68719;DHT22;55696;52.138;5.444;2023-08-07T00:46:16;16.90;72.90
68719;DHT22;55696;52.138;5.444;2023-08-07T00:48:44;16.90;72.80
68719;DHT22;55696;52.138;5.444;2023-08-07T00:51:11;16.80;72.60
68719;DHT22;55696;52.138;5.444;2023-08-07T00:53:39;16.90;72.60
68719;DHT22;55696;52.138;5.444;2023-08-07T00:56:07;16.90;72.60
68719;DHT22;55696;52.138;5.444;2023-08-07T00:58:34;16.90;72.50
68719;DHT22;55696;52.138;5.444;2023-08-07T01:01:02;16.90;72.40
68719;DHT22;55696;52.138;5.444;2023-08-07T01:03:29;16.80;72.50
68719;DHT22;55696;52.138;5.444;2023-08-07T01:05:56;16.70;72.20
68719;DHT22;55696;52.138;5.444;2023-08-07T01:08:24;16.90;72.40
68719;DHT22;55696;52.138;5.444;2023-08-07T01:10:57;16.90;72.70
68719;DHT22;55696;52.138;5.444;2023-08-07T01:14:06;16.90;71.90
68719;DHT22;55696;52.138;5.444;2023-08-07T01:19:22;16.60;72.40
68719;DHT22;55696;52.138;5.444;2023-08-07T01:22:04;16.90;73.40
68719;DHT22;55696;52.138;5.444;2023-08-07T01:24:34;16.90;73.40
68719;DHT22;55696;52.138;5.444;2023-08-07T01:27:19;16.90;72.20
68719;DHT22;55696;52.138;5.444;2023-08-07T01:35:21;17.00;72.80
68719;DHT22;55696;52.138;5.444;2023-08-07T01:37:54;17.50;73.10
68719;DHT22;55696;52.138;5.444;2023-08-07T01:40:22;16.90;72.50
68719;DHT22;55696;52.138;5.444;2023-08-07T01:42:52;17.00;72.20
68719;DHT22;55696;52.138;5.444;2023-08-07T01:45:26;16.90;71.80
68719;DHT22;55696;52.138;5.444;2023-08-07T01:47:54;17.00;73.80
68719;DHT22;55696;52.138;5.444;2023-08-07T01:50:22;16.90;71.70
68719;DHT22;55696;52.138;5.444;2023-08-07T01:52:50;17.00;71.60
68719;DHT22;55696;52.138;5.444;2023-08-07T01:55:17;17.10;71.60
68719;DHT22;55696;52.138;5.444;2023-08-07T01:57:51;17.20;72.40
68719;DHT22;55696;52.138;5.444;2023-08-07T02:00:18;17.10;71.00
68719;DHT22;55696;52.138;5.444;2023-08-07T02:02:45;17.10;71.00
68719;DHT22;55696;52.138;5.444;2023-08-07T02:05:14;17.20;71.00
68719;DHT22;55696;52.138;5.444;2023-08-07T02:07:41;17.10;71.10
68719;DHT22;55696;52.138;5.444;2023-08-07T02:10:08;17.20;70.90
68719;DHT22;55696;52.138;5.444;2023-08-07T02:12:35;17.20;71.00
68719;DHT22;55696;52.138;5.444;2023-08-07T02:15:02;17.10;70.80
68719;DHT22;55696;52.138;5.444;2023-08-07T02:17:29;17.10;70.90
68719;DHT22;55696;52.138;5.444;2023-08-07T02:19:57;17.10;70.90
68719;DHT22;55696;52.138;5.444;2023-08-07T02:22:25;17.20;71.00
68719;DHT22;55696;52.138;5.444;2023-08-07T02:24:51;17.10;71.40
68719;DHT22;55696;52.138;5.444;2023-08-07T02:27:18;17.10;71.00
68719;DHT22;55696;52.138;5.444;2023-08-07T02:29:46;17.20;71.10
68719;DHT22;55696;52.138;5.444;2023-08-07T02:32:13;16.90;70.90
68719;DHT22;55696;52.138;5.444;2023-08-07T02:34:40;17.10;71.10
68719;DHT22;55696;52.138;5.444;2023-08-07T02:37:07;17.20;71.30
68719;DHT22;55696;52.138;5.444;2023-08-07T02:39:33;17.20;71.40
68719;DHT22;55696;52.138;5.444;2023-08-07T02:42:00;17.10;71.40
68719;DHT22;55696;52.138;5.444;2023-08-07T02:44:27;17.20;71.60
68719;DHT22;55696;52.138;5.444;2023-08-07T02:46:54;17.10;71.50
68719;DHT22;55696;52.138;5.444;2023-08-07T02:49:21;17.10;71.40
68719;DHT22;55696;52.138;5.444;2023-08-07T02:51:48;17.10;71.50
68719;DHT22;55696;52.138;5.444;2023-08-07T02:54:15;17.20;71.50
68719;DHT22;55696;52.138;5.444;2023-08-07T02:56:42;17.10;71.70
68719;DHT22;55696;52.138;5.444;2023-08-07T02:59:09;17.10;71.90
68719;DHT22;55696;52.138;5.444;2023-08-07T03:01:35;17.00;71.80
68719;DHT22;55696;52.138;5.444;2023-08-07T03:04:02;17.10;72.10
68719;DHT22;55696;52.138;5.444;2023-08-07T03:06:29;17.00;72.20
68719;DHT22;55696;52.138;5.444;2023-08-07T03:08:56;17.10;72.30
68719;DHT22;55696;52.138;5.444;2023-08-07T03:11:23;16.90;72.20
68719;DHT22;55696;52.138;5.444;2023-08-07T03:13:50;17.00;72.40
68719;DHT22;55696;52.138;5.444;2023-08-07T03:16:17;16.80;72.30
68719;DHT22;55696;52.138;5.444;2023-08-07T03:18:44;16.90;72.40
68719;DHT22;55696;52.138;5.444;2023-08-07T03:21:11;17.00;72.50
68719;DHT22;55696;52.138;5.444;2023-08-07T03:23:39;17.00;72.50
68719;DHT22;55696;52.138;5.444;2023-08-07T03:26:09;16.90;72.50
68719;DHT22;55696;52.138;5.444;2023-08-07T03:28:39;17.00;73.20
68719;DHT22;55696;52.138;5.444;2023-08-07T03:31:06;16.80;72.60
68719;DHT22;55696;52.138;5.444;2023-08-07T03:33:35;17.00;72.50
68719;DHT22;55696;52.138;5.444;2023-08-07T03:36:02;16.80;72.30
68719;DHT22;55696;52.138;5.444;2023-08-07T03:38:29;16.90;72.30
68719;DHT22;55696;52.138;5.444;2023-08-07T03:40:56;16.90;72.30
68719;DHT22;55696;52.138;5.444;2023-08-07T03:43:24;16.90;72.40
68719;DHT22;55696;52.138;5.444;2023-08-07T03:45:55;16.80;72.30
68719;DHT22;55696;52.138;5.444;2023-08-07T03:48:28;16.90;73.70
68719;DHT22;55696;52.138;5.444;2023-08-07T03:51:05;16.90;72.50
68719;DHT22;55696;52.138;5.444;2023-08-07T03:53:39;16.90;73.30
68719;DHT22;55696;52.138;5.444;2023-08-07T03:56:05;16.90;72.50
68719;DHT22;55696;52.138;5.444;2023-08-07T03:58:34;16.90;72.40
68719;DHT22;55696;52.138;5.444;2023-08-07T04:01:01;16.90;72.60
68719;DHT22;55696;52.138;5.444;2023-08-07T04:03:28;16.90;72.50
68719;DHT22;55696;52.138;5.444;2023-08-07T04:05:55;17.60;73.10
68719;DHT22;55696;52.138;5.444;2023-08-07T04:08:22;16.80;72.80
68719;DHT22;55696;52.138;5.444;2023-08-07T04:11:03;16.90;72.80
68719;DHT22;55696;52.138;5.444;2023-08-07T04:13:32;16.90;73.80
68719;DHT22;55696;52.138;5.444;2023-08-07T04:15:59;16.90;72.90
68719;DHT22;55696;52.138;5.444;2023-08-07T04:18:28;16.90;73.00
68719;DHT22;55696;52.138;5.444;2023-08-07T04:20:56;17.00;72.80
68719;DHT22;55696;52.138;5.444;2023-08-07T04:23:23;17.00;73.30
68719;DHT22;55696;52.138;5.444;2023-08-07T04:25:51;17.20;73.20
68719;DHT22;55696;52.138;5.444;2023-08-07T04:28:19;17.00;73.30
68719;DHT22;55696;52.138;5.444;2023-08-07T04:30:49;17.00;73.20
68719;DHT22;55696;52.138;5.444;2023-08-07T04:33:18;17.00;74.20
68719;DHT22;55696;52.138;5.444;2023-08-07T04:35:45;16.80;73.30
68719;DHT22;55696;52.138;5.444;2023-08-07T04:38:16;17.00;73.20
68719;DHT22;55696;52.138;5.444;2023-08-07T04:40:48;17.00;74.40
68719;DHT22;55696;52.138;5.444;2023-08-07T04:43:16;16.90;74.50
68719;DHT22;55696;52.138;5.444;2023-08-07T04:45:43;16.80;73.50
68719;DHT22;55696;52.138;5.444;2023-08-07T04:48:12;16.80;73.10
68719;DHT22;55696;52.138;5.444;2023-08-07T04:50:40;17.00;73.40
68719;DHT22;55696;52.138;5.444;2023-08-07T04:53:07;17.10;73.50
68719;DHT22;55696;52.138;5.444;2023-08-07T04:55:34;17.10;73.50
68719;DHT22;55696;52.138;5.444;2023-08-07T04:58:01;17.00;73.20
68719;DHT22;55696;52.138;5.444;2023-08-07T05:00:28;17.00;73.20
68719;DHT22;55696;52.138;5.444;2023-08-07T05:02:55;16.90;73.30
68719;DHT22;55696;52.138;5.444;2023-08-07T05:05:22;17.10;73.30
68719;DHT22;55696;52.138;5.444;2023-08-07T05:07:50;17.00;73.30
68719;DHT22;55696;52.138;5.444;2023-08-07T05:10:17;17.00;73.40
68719;DHT22;55696;52.138;5.444;2023-08-07T05:12:44;17.10;73.40
68719;DHT22;55696;52.138;5.444;2023-08-07T05:15:11;17.00;73.30
68719;DHT22;55696;52.138;5.444;2023-08-07T05:17:38;17.10;73.30
68719;DHT22;55696;52.138;5.444;2023-08-07T05:20:05;17.10;74.30
68719;DHT22;55696;52.138;5.444;2023-08-07T05:22:32;17.10;73.70
68719;DHT22;55696;52.138;5.444;2023-08-07T05:24:59;17.00;73.40
68719;DHT22;55696;52.138;5.444;2023-08-07T05:27:26;16.90;73.50
68719;DHT22;55696;52.138;5.444;2023-08-07T05:29:53;17.20;73.50
68719;DHT22;55696;52.138;5.444;2023-08-07T05:32:19;17.10;73.50
68719;DHT22;55696;52.138;5.444;2023-08-07T05:34:46;17.10;73.60
68719;DHT22;55696;52.138;5.444;2023-08-07T05:37:13;17.20;73.50
68719;DHT22;55696;52.138;5.444;2023-08-07T05:39:40;17.10;73.50
68719;DHT22;55696;52.138;5.444;2023-08-07T05:42:08;17.20;73.40
68719;DHT22;55696;52.138;5.444;2023-08-07T05:44:36;17.20;73.50
68719;DHT22;55696;52.138;5.444;2023-08-07T05:47:03;17.20;73.20
68719;DHT22;55696;52.138;5.444;2023-08-07T05:49:30;17.30;73.20
68719;DHT22;55696;52.138;5.444;2023-08-07T05:51:57;17.20;73.10
68719;DHT22;55696;52.138;5.444;2023-08-07T05:54:25;17.20;72.90
68719;DHT22;55696;52.138;5.444;2023-08-07T05:56:52;17.20;73.00
68719;DHT22;55696;52.138;5.444;2023-08-07T05:59:18;17.20;73.10
68719;DHT22;55696;52.138;5.444;2023-08-07T06:01:45;17.00;72.80
68719;DHT22;55696;52.138;5.444;2023-08-07T06:04:12;17.20;72.80
68719;DHT22;55696;52.138;5.444;2023-08-07T06:06:39;17.30;72.60
68719;DHT22;55696;52.138;5.444;2023-08-07T06:09:06;17.30;72.60
68719;DHT22;55696;52.138;5.444;2023-08-07T06:11:33;17.30;72.40
68719;DHT22;55696;52.138;5.444;2023-08-07T06:14:00;17.40;72.50
68719;DHT22;55696;52.138;5.444;2023-08-07T06:16:27;17.40;72.40
68719;DHT22;55696;52.138;5.444;2023-08-07T06:18:55;17.60;72.00
68719;DHT22;55696;52.138;5.444;2023-08-07T06:21:21;17.60;72.00
68719;DHT22;55696;52.138;5.444;2023-08-07T06:23:48;17.50;71.60
68719;DHT22;55696;52.138;5.444;2023-08-07T06:26:15;17.70;71.50
68719;DHT22;55696;52.138;5.444;2023-08-07T06:28:43;17.70;71.20
68719;DHT22;55696;52.138;5.444;2023-08-07T06:31:11;17.70;71.20
68719;DHT22;55696;52.138;5.444;2023-08-07T06:33:38;17.80;71.40
68719;DHT22;55696;52.138;5.444;2023-08-07T06:36:06;17.70;70.90
68719;DHT22;55696;52.138;5.444;2023-08-07T06:38:35;18.10;71.30
68719;DHT22;55696;52.138;5.444;2023-08-07T06:41:02;18.00;70.30
68719;DHT22;55696;52.138;5.444;2023-08-07T06:43:29;18.00;70.20
68719;DHT22;55696;52.138;5.444;2023-08-07T06:45:57;18.90;70.50
68719;DHT22;55696;52.138;5.444;2023-08-07T06:48:24;18.80;70.60
68719;DHT22;55696;52.138;5.444;2023-08-07T06:50:51;18.30;70.70
68719;DHT22;55696;52.138;5.444;2023-08-07T06:53:18;18.20;69.40
68719;DHT22;55696;52.138;5.444;2023-08-07T06:55:45;18.30;69.30
68719;DHT22;55696;52.138;5.444;2023-08-07T06:58:12;18.40;69.00
68719;DHT22;55696;52.138;5.444;2023-08-07T07:00:39;18.50;69.00
68719;DHT22;55696;52.138;5.444;2023-08-07T07:03:06;18.30;68.70
68719;DHT22;55696;52.138;5.444;2023-08-07T07:05:34;18.40;68.90
68719;DHT22;55696;52.138;5.444;2023-08-07T07:08:01;18.60;68.50
68719;DHT22;55696;52.138;5.444;2023-08-07T07:10:28;18.60;67.60
68719;DHT22;55696;52.138;5.444;2023-08-07T07:12:55;18.70;67.50
68719;DHT22;55696;52.138;5.444;2023-08-07T07:15:22;18.80;67.50
68719;DHT22;55696;52.138;5.444;2023-08-07T07:17:49;18.80;66.80
68719;DHT22;55696;52.138;5.444;2023-08-07T07:20:15;18.90;66.80
68719;DHT22;55696;52.138;5.444;2023-08-07T07:22:42;18.80;66.40
68719;DHT22;55696;52.138;5.444;2023-08-07T07:25:09;18.60;66.20
68719;DHT22;55696;52.138;5.444;2023-08-07T07:27:36;18.60;66.60
68719;DHT22;55696;52.138;5.444;2023-08-07T07:30:04;18.50;66.80
68719;DHT22;55696;52.138;5.444;2023-08-07T07:32:31;18.50;67.40
68719;DHT22;55696;52.138;5.444;2023-08-07T07:34:58;18.20;67.10
68719;DHT22;55696;52.138;5.444;2023-08-07T07:37:25;18.40;67.30
68719;DHT22;55696;52.138;5.444;2023-08-07T07:39:51;18.40;67.70
68719;DHT22;55696;52.138;5.444;2023-08-07T07:42:18;19.10;68.20
68719;DHT22;55696;52.138;5.444;2023-08-07T07:44:45;18.60;67.70
68719;DHT22;55696;52.138;5.444;2023-08-07T07:47:12;18.80;67.30
68719;DHT22;55696;52.138;5.444;2023-08-07T07:49:45;18.70;67.00
68719;DHT22;55696;52.138;5.444;2023-08-07T07:52:12;18.90;67.60
68719;DHT22;55696;52.138;5.444;2023-08-07T07:54:39;19.00;66.60
68719;DHT22;55696;52.138;5.444;2023-08-07T07:57:06;19.20;66.10
68719;DHT22;55696;52.138;5.444;2023-08-07T07:59:33;20.10;66.10
68719;DHT22;55696;52.138;5.444;2023-08-07T08:02:00;19.60;64.90
68719;DHT22;55696;52.138;5.444;2023-08-07T08:04:26;19.60;64.90
68719;DHT22;55696;52.138;5.444;2023-08-07T08:06:54;19.50;65.10
68719;DHT22;55696;52.138;5.444;2023-08-07T08:09:21;19.30;65.70
68719;DHT22;55696;52.138;5.444;2023-08-07T08:11:48;19.80;66.70
68719;DHT22;55696;52.138;5.444;2023-08-07T08:14:15;18.90;66.50
68719;DHT22;55696;52.138;5.444;2023-08-07T08:16:42;18.70;67.00
68719;DHT22;55696;52.138;5.444;2023-08-07T08:19:09;18.60;67.20
68719;DHT22;55696;52.138;5.444;2023-08-07T08:21:36;18.50;67.60
68719;DHT22;55696;52.138;5.444;2023-08-07T08:24:04;18.30;67.70
68719;DHT22;55696;52.138;5.444;2023-08-07T08:26:31;18.50;67.90
68719;DHT22;55696;52.138;5.444;2023-08-07T08:28:58;18.50;67.80
68719;DHT22;55696;52.138;5.444;2023-08-07T08:31:24;18.50;67.60
68719;DHT22;55696;52.138;5.444;2023-08-07T08:33:52;18.50;67.60
68719;DHT22;55696;52.138;5.444;2023-08-07T08:36:18;18.50;67.50
68719;DHT22;55696;52.138;5.444;2023-08-07T08:38:45;18.60;67.30
68719;DHT22;55696;52.138;5.444;2023-08-07T08:41:16;18.70;67.40
68719;DHT22;55696;52.138;5.444;2023-08-07T08:43:43;19.20;67.50
68719;DHT22;55696;52.138;5.444;2023-08-07T08:46:14;19.60;67.30
68719;DHT22;55696;52.138;5.444;2023-08-07T08:48:46;19.00;66.30
68719;DHT22;55696;52.138;5.444;2023-08-07T08:51:13;19.30;65.60
68719;DHT22;55696;52.138;5.444;2023-08-07T08:53:41;19.50;64.30
68719;DHT22;55696;52.138;5.444;2023-08-07T08:56:09;19.50;63.60
68719;DHT22;55696;52.138;5.444;2023-08-07T08:58:36;19.30;62.60
68719;DHT22;55696;52.138;5.444;2023-08-07T09:01:03;19.40;62.70
68719;DHT22;55696;52.138;5.444;2023-08-07T09:03:30;19.20;63.20
68719;DHT22;55696;52.138;5.444;2023-08-07T09:05:58;19.20;63.40
68719;DHT22;55696;52.138;5.444;2023-08-07T09:08:27;19.10;63.30
68719;DHT22;55696;52.138;5.444;2023-08-07T09:10:56;19.10;63.60
68719;DHT22;55696;52.138;5.444;2023-08-07T09:13:24;19.20;63.10
68719;DHT22;55696;52.138;5.444;2023-08-07T09:15:53;19.20;63.00
68719;DHT22;55696;52.138;5.444;2023-08-07T09:18:22;19.50;62.40
68719;DHT22;55696;52.138;5.444;2023-08-07T09:20:49;19.30;62.20
68719;DHT22;55696;52.138;5.444;2023-08-07T09:23:16;19.10;61.80
68719;DHT22;55696;52.138;5.444;2023-08-07T09:25:44;20.50;62.60
68719;DHT22;55696;52.138;5.444;2023-08-07T09:28:11;19.40;61.90
68719;DHT22;55696;52.138;5.444;2023-08-07T09:30:38;19.70;61.50
68719;DHT22;55696;52.138;5.444;2023-08-07T09:33:05;20.20;60.70
68719;DHT22;55696;52.138;5.444;2023-08-07T09:35:33;20.10;59.50
68719;DHT22;55696;52.138;5.444;2023-08-07T09:38:01;20.10;58.70
68719;DHT22;55696;52.138;5.444;2023-08-07T09:40:29;20.40;58.50
68719;DHT22;55696;52.138;5.444;2023-08-07T09:42:56;20.50;58.50
68719;DHT22;55696;52.138;5.444;2023-08-07T09:45:25;20.40;58.20
68719;DHT22;55696;52.138;5.444;2023-08-07T09:48:03;20.50;58.60
68719;DHT22;55696;52.138;5.444;2023-08-07T09:50:30;20.40;58.50
68719;DHT22;55696;52.138;5.444;2023-08-07T09:52:59;20.30;58.30
68719;DHT22;55696;52.138;5.444;2023-08-07T09:55:26;20.10;58.60
68719;DHT22;55696;52.138;5.444;2023-08-07T09:57:53;20.20;58.50
68719;DHT22;55696;52.138;5.444;2023-08-07T10:00:21;19.90;57.60
68719;DHT22;55696;52.138;5.444;2023-08-07T10:02:49;20.00;58.10
68719;DHT22;55696;52.138;5.444;2023-08-07T10:05:17;20.20;58.30
68719;DHT22;55696;52.138;5.444;2023-08-07T10:07:44;20.20;57.70
68719;DHT22;55696;52.138;5.444;2023-08-07T10:10:13;20.20;57.80
68719;DHT22;55696;52.138;5.444;2023-08-07T10:12:41;20.30;57.60
68719;DHT22;55696;52.138;5.444;2023-08-07T10:15:08;20.20;57.50
68719;DHT22;55696;52.138;5.444;2023-08-07T10:17:36;20.30;57.60
68719;DHT22;55696;52.138;5.444;2023-08-07T10:20:03;20.20;57.60
68719;DHT22;55696;52.138;5.444;2023-08-07T10:22:32;20.10;57.70
68719;DHT22;55696;52.138;5.444;2023-08-07T10:25:01;19.90;58.10
68719;DHT22;55696;52.138;5.444;2023-08-07T10:27:31;20.20;58.40
68719;DHT22;55696;52.138;5.444;2023-08-07T10:30:00;20.30;58.30
68719;DHT22;55696;52.138;5.444;2023-08-07T10:32:28;20.50;57.60
68719;DHT22;55696;52.138;5.444;2023-08-07T10:34:56;20.50;57.20
68719;DHT22;55696;52.138;5.444;2023-08-07T10:37:44;20.60;57.10
68719;DHT22;55696;52.138;5.444;2023-08-07T10:40:12;20.60;58.30
68719;DHT22;55696;52.138;5.444;2023-08-07T10:45:22;20.90;56.80
68719;DHT22;55696;52.138;5.444;2023-08-07T10:48:05;20.90;55.80
68719;DHT22;55696;52.138;5.444;2023-08-07T10:50:33;20.90;56.20
68719;DHT22;55696;52.138;5.444;2023-08-07T10:53:04;20.90;56.20
68719;DHT22;55696;52.138;5.444;2023-08-07T10:55:42;20.90;56.00
68719;DHT22;55696;52.138;5.444;2023-08-07T10:58:25;20.90;55.70
68719;DHT22;55696;52.138;5.444;2023-08-07T11:01:18;21.00;55.80
68719;DHT22;55696;52.138;5.444;2023-08-07T11:03:56;21.30;56.00
68719;DHT22;55696;52.138;5.444;2023-08-07T11:06:25;21.40;54.90
68719;DHT22;55696;52.138;5.444;2023-08-07T11:08:53;21.50;54.60
68719;DHT22;55696;52.138;5.444;2023-08-07T11:11:20;21.50;54.30
68719;DHT22;55696;52.138;5.444;2023-08-07T11:13:47;21.10;53.80
68719;DHT22;55696;52.138;5.444;2023-08-07T11:16:14;21.10;54.70
68719;DHT22;55696;52.138;5.444;2023-08-07T11:18:42;21.00;54.70
68719;DHT22;55696;52.138;5.444;2023-08-07T11:21:10;21.10;54.90
68719;DHT22;55696;52.138;5.444;2023-08-07T11:23:38;21.10;53.90
68719;DHT22;55696;52.138;5.444;2023-08-07T11:26:05;20.90;54.50
68719;DHT22;55696;52.138;5.444;2023-08-07T11:28:33;20.90;53.60
68719;DHT22;55696;52.138;5.444;2023-08-07T11:31:00;20.90;53.80
68719;DHT22;55696;52.138;5.444;2023-08-07T11:33:28;21.00;54.00
68719;DHT22;55696;52.138;5.444;2023-08-07T11:35:55;21.80;54.40
68719;DHT22;55696;52.138;5.444;2023-08-07T11:38:51;21.60;53.70
68719;DHT22;55696;52.138;5.444;2023-08-07T11:41:18;21.60;53.90
68719;DHT22;55696;52.138;5.444;2023-08-07T11:43:46;21.40;53.40
68719;DHT22;55696;52.138;5.444;2023-08-07T11:46:14;21.70;53.30
68719;DHT22;55696;52.138;5.444;2023-08-07T11:48:43;21.70;53.00
68719;DHT22;55696;52.138;5.444;2023-08-07T11:51:10;21.90;52.70
68719;DHT22;55696;52.138;5.444;2023-08-07T11:53:39;22.10;52.20
68719;DHT22;55696;52.138;5.444;2023-08-07T11:56:10;22.10;51.90
68719;DHT22;55696;52.138;5.444;2023-08-07T11:58:45;22.20;51.40
68719;DHT22;55696;52.138;5.444;2023-08-07T12:01:16;22.30;51.30
68719;DHT22;55696;52.138;5.444;2023-08-07T12:03:53;22.30;50.50
68719;DHT22;55696;52.138;5.444;2023-08-07T12:06:23;22.50;51.10
68719;DHT22;55696;52.138;5.444;2023-08-07T12:08:54;22.70;50.70
68719;DHT22;55696;52.138;5.444;2023-08-07T12:11:21;23.40;50.70
68719;DHT22;55696;52.138;5.444;2023-08-07T12:13:49;23.10;49.60
68719;DHT22;55696;52.138;5.444;2023-08-07T12:16:17;22.80;48.20
68719;DHT22;55696;52.138;5.444;2023-08-07T12:18:45;22.90;47.70
68719;DHT22;55696;52.138;5.444;2023-08-07T12:21:17;22.60;48.20
68719;DHT22;55696;52.138;5.444;2023-08-07T12:23:46;22.50;48.20
68719;DHT22;55696;52.138;5.444;2023-08-07T12:26:16;22.30;47.80
68719;DHT22;55696;52.138;5.444;2023-08-07T12:28:43;22.30;47.30
68719;DHT22;55696;52.138;5.444;2023-08-07T12:31:10;22.20;46.70
68719;DHT22;55696;52.138;5.444;2023-08-07T12:33:37;22.30;46.40
68719;DHT22;55696;52.138;5.444;2023-08-07T12:36:03;22.80;45.70
68719;DHT22;55696;52.138;5.444;2023-08-07T12:38:30;23.20;44.40
68719;DHT22;55696;52.138;5.444;2023-08-07T12:40:57;23.50;42.50
68719;DHT22;55696;52.138;5.444;2023-08-07T12:43:25;23.60;42.20
68719;DHT22;55696;52.138;5.444;2023-08-07T12:45:52;23.70;42.70
68719;DHT22;55696;52.138;5.444;2023-08-07T12:48:20;23.90;42.60
68719;DHT22;55696;52.138;5.444;2023-08-07T12:50:46;23.90;42.30
68719;DHT22;55696;52.138;5.444;2023-08-07T12:53:13;23.90;42.40
68719;DHT22;55696;52.138;5.444;2023-08-07T12:55:40;23.90;42.30
68719;DHT22;55696;52.138;5.444;2023-08-07T12:58:07;24.20;41.80
68719;DHT22;55696;52.138;5.444;2023-08-07T13:00:34;24.10;41.10
68719;DHT22;55696;52.138;5.444;2023-08-07T13:03:01;24.10;40.40
68719;DHT22;55696;52.138;5.444;2023-08-07T13:05:28;23.90;40.60
68719;DHT22;55696;52.138;5.444;2023-08-07T13:07:59;23.90;41.00
68719;DHT22;55696;52.138;5.444;2023-08-07T13:10:26;24.00;41.60
68719;DHT22;55696;52.138;5.444;2023-08-07T13:12:57;24.20;41.10
68719;DHT22;55696;52.138;5.444;2023-08-07T13:15:25;25.10;40.70
68719;DHT22;55696;52.138;5.444;2023-08-07T13:17:53;24.40;39.50
68719;DHT22;55696;52.138;5.444;2023-08-07T13:20:19;24.50;39.80
68719;DHT22;55696;52.138;5.444;2023-08-07T13:22:47;24.20;39.80
68719;DHT22;55696;52.138;5.444;2023-08-07T13:25:13;23.90;40.40
68719;DHT22;55696;52.138;5.444;2023-08-07T13:27:40;23.80;41.40
68719;DHT22;55696;52.138;5.444;2023-08-07T13:30:08;24.20;40.90
68719;DHT22;55696;52.138;5.444;2023-08-07T13:32:36;24.60;39.50
68719;DHT22;55696;52.138;5.444;2023-08-07T13:35:03;24.70;39.00
68719;DHT22;55696;52.138;5.444;2023-08-07T13:37:31;24.90;38.50
68719;DHT22;55696;52.138;5.444;2023-08-07T13:39:58;24.90;38.50
68719;DHT22;55696;52.138;5.444;2023-08-07T13:42:25;24.80;38.80
68719;DHT22;55696;52.138;5.444;2023-08-07T13:44:55;24.80;39.40
68719;DHT22;55696;52.138;5.444;2023-08-07T13:47:22;24.90;39.50
68719;DHT22;55696;52.138;5.444;2023-08-07T13:49:51;25.10;39.10
68719;DHT22;55696;52.138;5.444;2023-08-07T13:52:19;25.10;38.10
68719;DHT22;55696;52.138;5.444;2023-08-07T13:54:46;25.00;37.60
68719;DHT22;55696;52.138;5.444;2023-08-07T13:57:12;24.80;38.40
68719;DHT22;55696;52.138;5.444;2023-08-07T13:59:39;24.70;38.20
68719;DHT22;55696;52.138;5.444;2023-08-07T14:02:06;24.30;38.60
68719;DHT22;55696;52.138;5.444;2023-08-07T14:04:33;23.80;39.60
68719;DHT22;55696;52.138;5.444;2023-08-07T14:07:00;24.00;39.70
68719;DHT22;55696;52.138;5.444;2023-08-07T14:09:27;24.20;38.30
68719;DHT22;55696;52.138;5.444;2023-08-07T14:11:53;24.70;38.30
68719;DHT22;55696;52.138;5.444;2023-08-07T14:14:22;25.00;37.90
68719;DHT22;55696;52.138;5.444;2023-08-07T14:16:49;25.30;37.90
68719;DHT22;55696;52.138;5.444;2023-08-07T14:19:16;25.50;37.30
68719;DHT22;55696;52.138;5.444;2023-08-07T14:21:43;26.00;37.30
68719;DHT22;55696;52.138;5.444;2023-08-07T14:24:10;25.70;36.80
68719;DHT22;55696;52.138;5.444;2023-08-07T14:26:37;25.80;36.70
68719;DHT22;55696;52.138;5.444;2023-08-07T14:29:04;26.00;36.40
68719;DHT22;55696;52.138;5.444;2023-08-07T14:31:30;26.10;35.50
68719;DHT22;55696;52.138;5.444;2023-08-07T14:33:57;25.40;35.80
68719;DHT22;55696;52.138;5.444;2023-08-07T14:36:24;25.40;36.60
68719;DHT22;55696;52.138;5.444;2023-08-07T14:38:51;25.30;36.30
68719;DHT22;55696;52.138;5.444;2023-08-07T14:41:18;25.20;36.80
68719;DHT22;55696;52.138;5.444;2023-08-07T14:43:45;25.40;37.30
68719;DHT22;55696;52.138;5.444;2023-08-07T14:46:14;25.70;37.20
68719;DHT22;55696;52.138;5.444;2023-08-07T14:48:40;25.80;36.50
68719;DHT22;55696;52.138;5.444;2023-08-07T14:51:08;25.90;36.90
68719;DHT22;55696;52.138;5.444;2023-08-07T14:53:34;26.20;36.80
68719;DHT22;55696;52.138;5.444;2023-08-07T14:56:02;26.20;36.30
68719;DHT22;55696;52.138;5.444;2023-08-07T14:58:29;26.30;35.90
68719;DHT22;55696;52.138;5.444;2023-08-07T15:00:56;26.10;35.30
68719;DHT22;55696;52.138;5.444;2023-08-07T15:03:23;25.90;35.60
68719;DHT22;55696;52.138;5.444;2023-08-07T15:05:50;25.60;35.30
68719;DHT22;55696;52.138;5.444;2023-08-07T15:08:17;25.80;35.70
68719;DHT22;55696;52.138;5.444;2023-08-07T15:10:43;25.90;35.30
68719;DHT22;55696;52.138;5.444;2023-08-07T15:13:10;26.00;35.10
68719;DHT22;55696;52.138;5.444;2023-08-07T15:15:37;26.10;35.10
68719;DHT22;55696;52.138;5.444;2023-08-07T15:18:04;26.30;35.30
68719;DHT22;55696;52.138;5.444;2023-08-07T15:20:34;26.40;35.30
68719;DHT22;55696;52.138;5.444;2023-08-07T15:23:02;26.90;35.30
68719;DHT22;55696;52.138;5.444;2023-08-07T15:25:29;26.80;35.30
68719;DHT22;55696;52.138;5.444;2023-08-07T15:27:56;26.80;35.70
68719;DHT22;55696;52.138;5.444;2023-08-07T15:30:27;27.00;36.10
68719;DHT22;55696;52.138;5.444;2023-08-07T15:32:55;27.10;36.30
68719;DHT22;55696;52.138;5.444;2023-08-07T15:35:23;27.20;35.70
68719;DHT22;55696;52.138;5.444;2023-08-07T15:37:50;26.60;37.10
68719;DHT22;55696;52.138;5.444;2023-08-07T15:40:16;26.00;36.80
68719;DHT22;55696;52.138;5.444;2023-08-07T15:42:43;25.50;37.70
68719;DHT22;55696;52.138;5.444;2023-08-07T15:45:12;25.50;38.00
68719;DHT22;55696;52.138;5.444;2023-08-07T15:47:40;25.10;38.30